createdAt,value
2022-09-28T00:01:24.253Z,11.55
2022-09-28T00:03:54.351Z,11.73
2022-09-28T00:06:24.694Z,15.10
2022-09-28T00:08:51.363Z,9.98
2022-09-28T00:11:20.983Z,14.40
2022-09-28T00:13:52.711Z,19.45
2022-09-28T00:16:23.025Z,10.25
2022-09-28T00:18:50.997Z,15.23
2022-09-28T00:21:23.823Z,15.05
2022-09-28T00:24:14.760Z,14.40
2022-09-28T00:26:56.954Z,14.85
2022-09-28T00:29:28.969Z,13.63
2022-09-28T00:32:03.113Z,13.88
2022-09-28T00:34:32.488Z,14.55
2022-09-28T00:37:00.914Z,14.10
2022-09-28T00:39:27.616Z,19.20
2022-09-28T00:41:56.244Z,17.55
2022-09-28T00:44:25.561Z,17.35
2022-09-28T00:47:04.083Z,20.10
2022-09-28T00:49:43.218Z,20.95
2022-09-28T00:52:15.907Z,20.33
2022-09-28T00:54:45.023Z,14.60
2022-09-28T00:57:13.274Z,24.98
2022-09-28T00:59:40.971Z,26.25
2022-09-28T01:02:13.822Z,22.27
2022-09-28T01:04:41.250Z,32.90
2022-09-28T01:07:11.200Z,22.75
2022-09-28T01:09:40.703Z,30.88
2022-09-28T01:12:08.991Z,28.90
2022-09-28T01:14:36.335Z,27.63
2022-09-28T01:17:17.110Z,28.27
2022-09-28T01:20:20.135Z,28.52
2022-09-28T01:23:26.621Z,25.50
2022-09-28T01:26:03.484Z,31.52
2022-09-28T01:28:32.184Z,27.10
2022-09-28T01:31:12.602Z,26.10
2022-09-28T01:33:48.566Z,29.08
2022-09-28T01:36:25.277Z,31.58
2022-09-28T01:38:56.497Z,28.65
2022-09-28T01:43:57.812Z,25.70
2022-09-28T01:46:33.810Z,35.08
2022-09-28T01:49:26.290Z,29.60
2022-09-28T01:52:25.281Z,28.55
2022-09-28T01:55:35.530Z,32.95
2022-09-28T01:58:24.034Z,31.95
2022-09-28T02:00:57.149Z,31.60
2022-09-28T02:03:32.162Z,30.90
2022-09-28T02:06:11.067Z,30.05
2022-09-28T02:08:46.986Z,31.05
2022-09-28T02:11:16.849Z,33.30
2022-09-28T02:13:50.579Z,30.45
2022-09-28T02:16:21.529Z,33.42
2022-09-28T02:18:50.759Z,33.93
2022-09-28T02:21:27.269Z,37.30
2022-09-28T02:23:58.166Z,30.67
2022-09-28T02:26:31.478Z,34.00
2022-09-28T02:28:59.483Z,32.25
2022-09-28T02:31:27.840Z,34.58
2022-09-28T02:33:57.421Z,44.50
2022-09-28T02:36:26.514Z,44.15
2022-09-28T02:38:54.159Z,42.53
2022-09-28T02:41:36.726Z,41.03
2022-09-28T02:44:42.359Z,36.10
2022-09-28T03:09:20.544Z,68.47
2022-09-28T03:25:06.548Z,54.42
2022-09-28T03:27:35.368Z,53.38
2022-09-28T03:30:02.103Z,61.45
2022-09-28T03:36:53.669Z,58.15
2022-09-28T03:39:46.445Z,58.15
2022-09-28T03:42:16.941Z,64.50
2022-09-28T03:44:48.584Z,66.18
2022-09-28T03:47:18.264Z,66.38
2022-09-28T03:49:46.217Z,75.43
2022-09-28T03:52:15.085Z,65.45
2022-09-28T03:54:43.773Z,65.70
2022-09-28T03:57:14.253Z,68.80
2022-09-28T03:59:40.976Z,65.18
2022-09-28T04:02:08.532Z,65.00
2022-09-28T04:04:35.134Z,71.22
2022-09-28T04:07:02.733Z,61.17
2022-09-28T04:09:29.419Z,64.85
2022-09-28T04:12:03.951Z,63.97
2022-09-28T04:14:32.842Z,61.97
2022-09-28T04:17:00.109Z,63.42
2022-09-28T04:19:30.403Z,60.85
2022-09-28T04:22:07.621Z,61.22
2022-09-28T04:24:34.222Z,61.58
2022-09-28T04:27:20.271Z,57.42
2022-09-28T04:29:48.795Z,61.72
2022-09-28T04:32:16.764Z,58.92
2022-09-28T04:34:44.466Z,59.05
2022-09-28T04:37:12.323Z,55.28
2022-09-28T04:39:42.178Z,54.75
2022-09-28T04:42:11.396Z,55.35
2022-09-28T04:44:38.818Z,50.53
2022-09-28T04:47:08.986Z,56.28
2022-09-28T04:49:50.979Z,54.25
2022-09-28T04:52:21.256Z,55.20
2022-09-28T04:54:49.026Z,54.03
2022-09-28T04:57:16.825Z,50.75
2022-09-28T04:59:43.777Z,50.10
2022-09-28T05:02:12.196Z,52.40
2022-09-28T05:04:58.793Z,49.60
2022-09-28T05:07:48.017Z,45.33
2022-09-28T05:10:14.737Z,51.03
2022-09-28T05:12:42.003Z,46.67
2022-09-28T05:15:10.509Z,45.58
2022-09-28T05:17:37.777Z,53.55
2022-09-28T05:20:24.880Z,51.60
2022-09-28T05:22:52.210Z,49.20
2022-09-28T05:25:19.212Z,45.60
2022-09-28T05:27:57.250Z,42.92
2022-09-28T05:30:37.289Z,42.75
2022-09-28T05:33:37.415Z,47.22
2022-09-28T05:36:11.331Z,45.22
2022-09-28T05:38:38.695Z,42.50
2022-09-28T05:41:06.786Z,43.90
2022-09-28T05:43:34.688Z,40.38
2022-09-28T05:46:04.900Z,46.63
2022-09-28T05:48:33.812Z,40.03
2022-09-28T05:51:00.472Z,41.95
2022-09-28T05:53:27.755Z,39.90
2022-09-28T05:55:59.060Z,37.45
2022-09-28T05:58:26.415Z,35.28
2022-09-28T06:00:56.022Z,38.45
2022-09-28T06:03:23.900Z,42.85
2022-09-28T06:05:50.588Z,39.38
2022-09-28T06:08:18.373Z,39.97
2022-09-28T06:10:50.055Z,40.50
2022-09-28T06:13:17.449Z,28.60
2022-09-28T06:15:46.209Z,29.83
2022-09-28T06:18:15.181Z,29.40
2022-09-28T06:21:00.265Z,34.45
2022-09-28T06:23:32.692Z,31.70
2022-09-28T06:25:59.968Z,31.17
2022-09-28T06:28:27.450Z,30.33
2022-09-28T06:30:54.357Z,26.40
2022-09-28T06:33:22.256Z,27.55
2022-09-28T06:35:48.877Z,24.48
2022-09-28T06:38:16.329Z,24.15
2022-09-28T06:40:42.951Z,22.40
2022-09-28T06:43:15.092Z,22.83
2022-09-28T06:46:17.721Z,22.13
2022-09-28T06:48:50.048Z,21.23
2022-09-28T06:51:20.948Z,21.35
2022-09-28T06:53:56.762Z,23.20
2022-09-28T06:56:50.098Z,19.48
2022-09-28T06:59:18.618Z,18.27
2022-09-28T07:01:45.970Z,17.65
2022-09-28T07:04:47.454Z,21.60
2022-09-28T07:07:37.833Z,18.10
2022-09-28T07:10:24.655Z,20.83
2022-09-28T07:13:32.591Z,20.13
2022-09-28T07:16:06.436Z,15.77
2022-09-28T07:18:33.020Z,19.30
2022-09-28T07:21:02.984Z,15.95
2022-09-28T07:23:31.361Z,18.08
2022-09-28T07:26:33.205Z,16.77
2022-09-28T07:28:59.831Z,19.52
2022-09-28T07:31:50.059Z,14.57
2022-09-28T07:34:43.516Z,18.25
2022-09-28T07:37:16.054Z,18.00
2022-09-28T07:40:02.288Z,17.33
2022-09-28T07:42:31.940Z,14.38
2022-09-28T07:44:58.837Z,17.20
2022-09-28T07:47:32.241Z,21.35
2022-09-28T07:50:28.973Z,14.70
2022-09-28T07:53:13.072Z,18.88
2022-09-28T07:56:02.239Z,17.48
2022-09-28T07:58:48.844Z,18.88
2022-09-28T08:01:42.606Z,13.63
2022-09-28T08:04:11.705Z,15.77
2022-09-28T08:06:41.006Z,15.35
2022-09-28T08:09:09.681Z,14.85
2022-09-28T08:12:09.262Z,15.77
2022-09-28T08:14:46.998Z,15.07
2022-09-28T08:17:38.009Z,16.25
2022-09-28T08:20:28.585Z,13.63
2022-09-28T08:23:02.450Z,12.75
2022-09-28T08:25:29.854Z,14.02
2022-09-28T08:27:57.215Z,9.98
2022-09-28T08:30:25.547Z,13.30
2022-09-28T08:33:07.734Z,15.27
2022-09-28T08:35:43.901Z,12.32
2022-09-28T08:38:14.511Z,12.95
2022-09-28T08:41:29.119Z,13.70
2022-09-28T08:44:12.394Z,6.18
2022-09-28T08:47:46.151Z,10.95
2022-09-28T08:50:31.295Z,8.93
2022-09-28T08:53:36.059Z,10.55
2022-09-28T08:56:21.685Z,7.22
2022-09-28T08:58:54.839Z,9.05
2022-09-28T09:03:50.872Z,6.53
2022-09-28T09:06:50.039Z,10.90
2022-09-28T09:10:12.631Z,10.27
2022-09-28T09:12:48.469Z,9.88
2022-09-28T09:15:30.229Z,7.90
2022-09-28T09:21:25.602Z,7.70
2022-09-28T09:23:55.547Z,6.30
2022-09-28T09:26:42.866Z,6.82
2022-09-28T09:29:33.605Z,8.40
2022-09-28T09:32:15.041Z,8.88
2022-09-28T09:35:14.376Z,4.72
2022-09-28T09:38:32.610Z,5.65
2022-09-28T09:42:04.906Z,5.80
2022-09-28T09:45:20.390Z,9.68
2022-09-28T09:48:17.401Z,9.30
2022-09-28T09:50:53.374Z,7.05
2022-09-28T09:53:37.703Z,13.15
2022-09-28T09:56:19.134Z,6.28
2022-09-28T09:59:08.132Z,8.50
2022-09-28T10:01:41.618Z,7.72
2022-09-28T10:04:37.550Z,7.68
2022-09-28T10:07:20.763Z,5.15
2022-09-28T10:09:48.850Z,4.18
2022-09-28T10:12:34.160Z,5.20
2022-09-28T10:15:06.495Z,10.18
2022-09-28T10:17:42.909Z,4.18
2022-09-28T10:20:36.894Z,8.90
2022-09-28T10:23:30.799Z,5.97
2022-09-28T10:26:03.475Z,5.50
2022-09-28T10:28:48.486Z,4.28
2022-09-28T10:31:35.758Z,6.20
2022-09-28T10:34:05.369Z,4.50
2022-09-28T10:36:38.796Z,11.90
2022-09-28T10:39:06.487Z,3.60
2022-09-28T10:41:48.273Z,6.45
2022-09-28T10:44:19.110Z,3.75
2022-09-28T10:47:03.346Z,7.57
2022-09-28T10:49:46.490Z,7.72
2022-09-28T10:52:32.580Z,2.47
2022-09-28T10:55:00.448Z,8.07
2022-09-28T10:57:37.304Z,3.30
2022-09-28T11:00:29.656Z,7.80
2022-09-28T11:03:25.281Z,4.82
2022-09-28T11:06:03.793Z,4.97
2022-09-28T11:08:42.754Z,4.65
2022-09-28T11:11:15.705Z,5.53
2022-09-28T11:13:49.549Z,4.47
2022-09-28T11:16:33.833Z,4.68
2022-09-28T11:19:20.924Z,6.03
2022-09-28T11:21:49.250Z,8.07
2022-09-28T11:24:25.906Z,7.07
2022-09-28T11:26:59.370Z,5.00
2022-09-28T11:29:41.577Z,4.82
2022-09-28T11:32:18.758Z,3.58
2022-09-28T11:35:04.486Z,3.20
2022-09-28T11:38:09.402Z,2.10
2022-09-28T11:41:10.807Z,5.78
2022-09-28T11:43:52.262Z,2.50
2022-09-28T11:46:31.186Z,4.85
2022-09-28T11:49:33.811Z,4.28
2022-09-28T11:52:08.703Z,6.50
2022-09-28T11:54:47.319Z,4.20
2022-09-28T11:57:24.155Z,2.22
2022-09-28T12:00:00.353Z,4.53
2022-09-28T12:02:36.621Z,3.30
2022-09-28T12:05:34.828Z,3.40
2022-09-28T12:08:02.579Z,3.63
2022-09-28T12:11:17.560Z,3.72
2022-09-28T12:14:34.485Z,4.70
2022-09-28T12:17:36.455Z,3.13
2022-09-28T12:20:18.341Z,3.33
2022-09-28T12:23:02.989Z,3.58
2022-09-28T12:25:36.897Z,3.15
2022-09-28T12:28:13.114Z,4.03
2022-09-28T12:30:42.235Z,5.88
2022-09-28T12:33:15.618Z,2.42
2022-09-28T12:38:34.061Z,3.55
2022-09-28T12:41:16.551Z,3.40
2022-09-28T12:43:43.783Z,3.03
2022-09-28T12:46:32.014Z,2.00
2022-09-28T12:49:56.248Z,4.85
2022-09-28T12:51:55.434Z,4.90
2022-09-28T12:54:39.025Z,3.60
2022-09-28T13:00:01.312Z,4.85
2022-09-28T13:02:52.811Z,4.15
2022-09-28T13:05:23.004Z,4.05
2022-09-28T13:08:17.358Z,3.63
2022-09-28T13:11:12.766Z,3.78
2022-09-28T13:13:48.170Z,5.00
2022-09-28T13:16:28.270Z,6.70
2022-09-28T13:19:24.773Z,5.03
2022-09-28T13:22:30.148Z,2.10
2022-09-28T13:25:02.244Z,6.35
2022-09-28T13:27:40.752Z,4.50
2022-09-28T13:30:07.985Z,3.92
2022-09-28T13:32:37.301Z,3.25
2022-09-28T13:35:05.868Z,2.70
2022-09-28T13:37:34.232Z,3.33
2022-09-28T13:40:06.328Z,4.75
2022-09-28T13:42:50.864Z,3.95
2022-09-28T13:45:20.535Z,2.17
2022-09-28T13:48:12.480Z,2.58
2022-09-28T13:51:23.916Z,2.15
2022-09-28T13:54:42.573Z,3.05
2022-09-28T13:57:34.981Z,4.85
2022-09-28T14:00:11.819Z,6.78
2022-09-28T14:02:48.515Z,2.72
2022-09-28T14:05:41.457Z,4.57
2022-09-28T14:08:26.880Z,4.40
2022-09-28T14:11:17.831Z,8.23
2022-09-28T14:13:45.145Z,2.03
2022-09-28T14:16:17.938Z,2.38
2022-09-28T14:18:50.254Z,4.32
2022-09-28T14:21:36.678Z,8.15
2022-09-28T14:24:28.142Z,7.03
2022-09-28T14:27:12.139Z,3.47
2022-09-28T14:29:40.338Z,4.20
2022-09-28T14:32:09.979Z,6.30
2022-09-28T14:34:43.858Z,2.13
2022-09-28T14:37:44.491Z,2.25
2022-09-28T14:40:51.268Z,5.63
2022-09-28T14:43:24.923Z,6.22
2022-09-28T14:46:11.777Z,5.90
2022-09-28T14:48:53.982Z,4.68
2022-09-28T14:51:26.755Z,5.18
2022-09-28T14:54:00.544Z,5.47
2022-09-28T14:56:45.445Z,1.40
2022-09-28T14:59:17.932Z,9.57
2022-09-28T15:01:54.434Z,7.90
2022-09-28T15:04:26.694Z,5.93
2022-09-28T15:06:54.048Z,3.28
2022-09-28T15:09:32.797Z,3.53
2022-09-28T15:12:07.762Z,7.28
2022-09-28T15:14:53.892Z,6.25
2022-09-28T15:17:24.104Z,6.35
2022-09-28T15:20:41.645Z,8.43
2022-09-28T15:23:33.545Z,5.97
2022-09-28T16:18:15.084Z,9.55
2022-09-28T16:38:57.772Z,7.18
2022-09-28T16:54:25.720Z,14.48
2022-09-28T17:28:33.878Z,24.98
2022-09-28T17:31:16.160Z,11.98
2022-09-28T17:33:43.605Z,14.85
2022-09-28T17:36:15.732Z,19.55
2022-09-28T17:38:43.019Z,15.98
2022-09-28T17:41:16.789Z,17.55
2022-09-28T17:43:46.489Z,18.75
2022-09-28T17:46:41.633Z,16.95
2022-09-28T17:49:11.488Z,17.80
2022-09-28T17:51:39.171Z,19.27
2022-09-28T17:54:07.837Z,16.40
2022-09-28T17:56:36.438Z,18.85
2022-09-28T17:59:10.051Z,25.83
2022-09-28T18:01:39.787Z,15.43
2022-09-28T18:04:08.630Z,15.50
2022-09-28T18:06:37.550Z,13.25
2022-09-28T18:09:05.047Z,14.45
2022-09-28T18:11:33.787Z,13.32
2022-09-28T18:14:00.891Z,15.82
2022-09-28T18:16:29.159Z,15.23
2022-09-28T18:18:56.065Z,17.10
2022-09-28T18:21:23.571Z,19.00
2022-09-28T18:23:50.449Z,18.13
2022-09-28T18:26:19.822Z,20.40
2022-09-28T18:28:46.913Z,21.92
2022-09-28T18:31:15.767Z,21.27
2022-09-28T18:33:43.207Z,20.73
2022-09-28T18:36:10.167Z,16.80
2022-09-28T18:38:38.080Z,16.45
2022-09-28T18:41:16.826Z,16.00
2022-09-28T18:43:48.912Z,15.63
2022-09-28T18:46:18.489Z,14.13
2022-09-28T18:48:47.044Z,14.63
2022-09-28T18:51:14.632Z,20.13
2022-09-28T18:53:41.500Z,15.48
2022-09-28T18:56:10.969Z,19.40
2022-09-28T18:58:39.312Z,23.15
2022-09-28T19:01:32.639Z,17.77
2022-09-28T19:06:28.292Z,18.02
2022-09-28T19:08:55.548Z,20.55
2022-09-28T19:11:23.816Z,23.63
2022-09-28T19:13:50.793Z,18.80
2022-09-28T19:16:21.038Z,15.32
2022-09-28T19:18:48.305Z,17.08
2022-09-28T19:21:15.873Z,16.40
2022-09-28T19:23:48.995Z,17.55
2022-09-28T19:26:21.045Z,16.60
2022-09-28T19:28:48.054Z,17.70
2022-09-28T19:31:16.209Z,19.17
2022-09-28T19:33:45.838Z,16.35
2022-09-28T19:36:16.851Z,20.67
2022-09-28T19:38:43.730Z,17.08
2022-09-28T19:41:39.553Z,18.75
2022-09-28T19:44:35.691Z,21.38
2022-09-28T19:47:08.211Z,16.50
2022-09-28T19:49:37.005Z,19.63
2022-09-28T19:52:22.557Z,18.45
2022-09-28T19:54:57.679Z,17.05
2022-09-28T19:57:30.100Z,18.10
2022-09-28T20:00:02.142Z,19.58
2022-09-28T20:02:33.296Z,18.48
2022-09-28T20:05:00.619Z,19.35
2022-09-28T20:07:27.307Z,17.80
2022-09-28T20:09:54.667Z,19.90
2022-09-28T20:12:22.157Z,22.73
2022-09-28T20:14:49.087Z,18.95
2022-09-28T20:17:16.370Z,21.08
2022-09-28T20:19:43.354Z,22.55
2022-09-28T20:22:10.881Z,22.33
2022-09-28T20:24:38.108Z,22.80
2022-09-28T20:27:04.781Z,25.27
2022-09-28T20:29:33.705Z,21.15
2022-09-28T20:32:00.879Z,23.92
2022-09-28T20:34:27.846Z,23.15
2022-09-28T20:36:55.439Z,22.05
2022-09-28T20:39:22.160Z,21.58
2022-09-28T20:41:49.638Z,19.40
2022-09-28T20:44:16.583Z,25.50
2022-09-28T20:46:44.431Z,20.42
2022-09-28T20:49:11.166Z,21.08
2022-09-28T20:51:38.409Z,23.30
2022-09-28T20:54:05.229Z,22.70
2022-09-28T20:56:40.362Z,22.48
2022-09-28T20:59:09.606Z,28.67
2022-09-28T21:01:37.069Z,21.25
2022-09-28T21:04:05.689Z,24.17
2022-09-28T21:06:39.026Z,23.23
2022-09-28T21:11:35.883Z,22.70
2022-09-28T21:14:05.027Z,35.05
2022-09-28T21:16:34.491Z,29.15
2022-09-28T21:19:01.222Z,26.45
2022-09-28T21:21:28.542Z,26.65
2022-09-28T21:23:56.704Z,26.70
2022-09-28T21:26:26.714Z,29.77
2022-09-28T21:28:58.347Z,28.20
2022-09-28T21:31:29.645Z,29.25
2022-09-28T21:33:57.525Z,26.95
2022-09-28T21:36:25.709Z,27.20
2022-09-28T21:38:54.925Z,24.25
2022-09-28T21:41:22.527Z,25.35
2022-09-28T21:43:49.189Z,26.15
2022-09-28T21:46:17.802Z,28.75
2022-09-28T21:48:44.891Z,24.55
2022-09-28T21:51:15.395Z,26.17
2022-09-28T21:53:42.638Z,27.23
2022-09-28T21:56:12.413Z,23.83
2022-09-28T21:58:39.983Z,27.10
2022-09-28T22:01:14.941Z,22.70
2022-09-28T22:03:44.185Z,24.75
2022-09-28T22:06:11.480Z,24.73
2022-09-28T22:08:38.641Z,20.45
2022-09-28T22:11:07.474Z,24.17
2022-09-28T22:13:40.490Z,24.08
2022-09-28T22:18:35.868Z,24.38
2022-09-28T22:21:10.029Z,21.83
2022-09-28T22:23:38.246Z,23.23
2022-09-28T22:26:13.703Z,23.25
2022-09-28T22:28:46.511Z,24.13
2022-09-28T22:31:14.436Z,24.25
2022-09-28T22:33:41.859Z,28.23
2022-09-28T22:36:08.434Z,24.20
2022-09-28T22:38:35.699Z,24.33
2022-09-28T22:41:03.564Z,22.27
2022-09-28T22:43:31.273Z,22.15
2022-09-28T22:46:06.186Z,24.40
2022-09-28T22:48:35.075Z,26.55
2022-09-28T22:51:03.508Z,22.02
2022-09-28T22:53:30.984Z,23.92
2022-09-28T22:55:59.083Z,25.40
2022-09-28T22:58:26.615Z,25.70
2022-09-28T23:00:53.361Z,23.42
2022-09-28T23:03:21.760Z,22.15
2022-09-28T23:05:52.652Z,22.05
2022-09-28T23:08:20.887Z,23.58
2022-09-28T23:10:47.812Z,23.73
2022-09-28T23:13:14.820Z,22.92
2022-09-28T23:15:42.444Z,26.88
2022-09-28T23:18:09.268Z,24.58
2022-09-28T23:20:36.788Z,30.75
2022-09-28T23:23:03.378Z,26.60
2022-09-28T23:25:30.285Z,29.02
2022-09-28T23:27:56.888Z,30.33
2022-09-28T23:30:23.944Z,23.52
2022-09-28T23:32:53.215Z,24.10
2022-09-28T23:35:20.551Z,26.42
2022-09-28T23:37:51.189Z,25.00
2022-09-28T23:40:18.922Z,22.92
2022-09-28T23:42:45.509Z,19.75
2022-09-28T23:45:12.825Z,22.65
2022-09-28T23:47:39.485Z,22.30
2022-09-28T23:50:07.245Z,22.27
2022-09-28T23:52:34.841Z,22.48
2022-09-28T23:55:02.173Z,24.45
2022-09-28T23:57:28.786Z,21.02
2022-09-28T23:59:56.041Z,21.98
